createdAt,value
2022-12-31T00:01:37.189Z,27.33
2022-12-31T00:04:15.085Z,29.20
2022-12-31T00:06:46.181Z,25.00
2022-12-31T00:09:23.150Z,27.07
2022-12-31T00:11:52.808Z,28.23
2022-12-31T00:14:24.840Z,26.10
2022-12-31T00:16:54.292Z,28.87
2022-12-31T00:19:23.322Z,28.77
2022-12-31T00:21:52.585Z,27.80
2022-12-31T00:24:21.320Z,27.97
2022-12-31T00:26:52.307Z,28.10
2022-12-31T00:29:23.220Z,27.93
2022-12-31T00:31:52.374Z,28.37
2022-12-31T00:34:26.534Z,28.37
2022-12-31T00:36:55.080Z,27.30
2022-12-31T00:39:33.856Z,27.93
2022-12-31T00:42:05.588Z,26.87
2022-12-31T00:44:38.921Z,26.50
2022-12-31T00:47:25.020Z,25.17
2022-12-31T00:49:55.708Z,24.90
2022-12-31T00:52:32.933Z,25.60
2022-12-31T00:55:02.503Z,27.47
2022-12-31T00:57:34.715Z,28.63
2022-12-31T01:00:09.395Z,26.17
2022-12-31T01:02:38.798Z,25.37
2022-12-31T01:05:09.294Z,25.03
2022-12-31T01:07:39.648Z,25.73
2022-12-31T01:10:12.360Z,24.67
2022-12-31T01:12:45.763Z,25.50
2022-12-31T01:15:25.428Z,24.73
2022-12-31T01:18:01.695Z,24.47
2022-12-31T01:20:30.403Z,24.20
2022-12-31T01:23:04.079Z,24.00
2022-12-31T01:25:39.470Z,24.40
2022-12-31T01:28:08.284Z,24.10
2022-12-31T01:30:41.716Z,22.50
2022-12-31T01:33:15.879Z,22.73
2022-12-31T01:35:45.445Z,22.97
2022-12-31T01:38:13.921Z,22.30
2022-12-31T01:40:44.008Z,22.97
2022-12-31T01:43:20.013Z,21.53
2022-12-31T01:45:57.110Z,22.90
2022-12-31T01:48:28.580Z,23.17
2022-12-31T01:51:02.838Z,21.37
2022-12-31T01:53:32.542Z,23.40
2022-12-31T01:56:18.179Z,22.37
2022-12-31T01:58:58.741Z,21.63
2022-12-31T02:01:41.211Z,21.67
2022-12-31T02:04:14.589Z,23.33
2022-12-31T02:06:48.726Z,24.77
2022-12-31T02:09:25.741Z,25.00
2022-12-31T02:12:06.565Z,24.97
2022-12-31T02:14:40.316Z,26.87
2022-12-31T02:17:37.815Z,26.37
2022-12-31T02:20:48.495Z,27.30
2022-12-31T02:24:08.413Z,27.33
2022-12-31T02:27:01.094Z,27.27
2022-12-31T02:30:09.533Z,26.40
2022-12-31T02:33:08.264Z,27.90
2022-12-31T02:35:49.773Z,27.20
2022-12-31T02:38:24.693Z,28.13
2022-12-31T02:40:55.219Z,25.67
2022-12-31T02:43:25.021Z,26.90
2022-12-31T02:46:07.068Z,26.47
2022-12-31T02:48:44.471Z,27.10
2022-12-31T02:51:22.774Z,28.43
2022-12-31T02:54:08.464Z,26.87
2022-12-31T02:56:48.517Z,28.97
2022-12-31T02:59:43.164Z,29.30
2022-12-31T03:02:18.934Z,26.60
2022-12-31T03:04:55.734Z,27.93
2022-12-31T03:07:40.882Z,27.70
2022-12-31T03:10:13.113Z,25.83
2022-12-31T03:12:50.233Z,28.40
2022-12-31T03:15:21.996Z,26.33
2022-12-31T03:18:00.125Z,24.80
2022-12-31T03:20:53.880Z,25.07
2022-12-31T03:23:25.792Z,23.70
2022-12-31T03:25:57.450Z,24.23
2022-12-31T03:28:36.256Z,23.40
2022-12-31T03:31:30.913Z,23.63
2022-12-31T03:34:08.370Z,24.47
2022-12-31T03:36:40.216Z,23.80
2022-12-31T03:39:14.417Z,22.30
2022-12-31T03:41:46.181Z,22.07
2022-12-31T03:44:15.708Z,22.90
2022-12-31T03:46:58.689Z,23.07
2022-12-31T03:49:27.098Z,22.60
2022-12-31T03:51:56.933Z,21.77
2022-12-31T03:54:27.000Z,22.20
2022-12-31T03:57:00.296Z,21.87
2022-12-31T03:59:33.297Z,22.30
2022-12-31T04:02:01.744Z,22.00
2022-12-31T04:04:33.530Z,23.27
2022-12-31T04:07:08.482Z,23.43
2022-12-31T04:09:40.874Z,21.43
2022-12-31T04:12:14.806Z,22.37
2022-12-31T04:14:46.863Z,22.23
2022-12-31T04:17:19.479Z,23.03
2022-12-31T04:19:56.700Z,23.47
2022-12-31T04:22:28.672Z,21.97
2022-12-31T04:25:00.455Z,23.20
2022-12-31T04:27:32.186Z,23.47
2022-12-31T04:30:01.503Z,22.00
2022-12-31T04:32:39.154Z,22.90
2022-12-31T04:35:08.803Z,21.77
2022-12-31T04:37:53.629Z,20.90
2022-12-31T04:40:30.033Z,20.47
2022-12-31T04:43:00.822Z,21.30
2022-12-31T04:45:35.630Z,19.37
2022-12-31T04:48:11.814Z,19.40
2022-12-31T04:50:43.447Z,20.03
2022-12-31T04:53:19.073Z,19.27
2022-12-31T04:55:52.127Z,19.07
2022-12-31T04:58:23.438Z,18.30
2022-12-31T05:00:54.720Z,18.67
2022-12-31T05:03:26.285Z,18.63
2022-12-31T05:06:02.862Z,17.60
2022-12-31T05:08:40.948Z,17.83
2022-12-31T05:11:14.502Z,17.10
2022-12-31T05:13:47.727Z,19.47
2022-12-31T05:16:20.093Z,20.30
2022-12-31T05:18:50.001Z,20.10
2022-12-31T05:21:21.979Z,20.90
2022-12-31T05:24:01.226Z,20.07
2022-12-31T05:26:33.220Z,21.00
2022-12-31T05:29:01.722Z,18.63
2022-12-31T05:31:33.530Z,19.63
2022-12-31T05:34:09.584Z,20.67
2022-12-31T05:36:42.110Z,19.10
2022-12-31T05:39:20.358Z,19.97
2022-12-31T05:41:54.192Z,20.20
2022-12-31T05:44:25.718Z,19.60
2022-12-31T05:46:55.322Z,20.33
2022-12-31T05:49:23.907Z,19.50
2022-12-31T05:51:55.356Z,19.83
2022-12-31T05:54:27.235Z,19.07
2022-12-31T05:56:57.503Z,19.33
2022-12-31T05:59:26.016Z,19.30
2022-12-31T06:01:57.062Z,20.23
2022-12-31T06:04:30.469Z,21.13
2022-12-31T06:06:59.507Z,19.47
2022-12-31T06:09:36.512Z,19.83
2022-12-31T06:12:15.233Z,20.60
2022-12-31T06:14:54.624Z,19.63
2022-12-31T06:17:23.575Z,19.43
2022-12-31T06:19:55.317Z,19.17
2022-12-31T06:22:24.106Z,19.73
2022-12-31T06:24:55.492Z,19.47
2022-12-31T06:27:34.925Z,18.67
2022-12-31T06:30:11.666Z,17.87
2022-12-31T06:32:40.842Z,18.27
2022-12-31T06:35:10.471Z,17.20
2022-12-31T06:37:40.986Z,18.23
2022-12-31T06:40:26.249Z,18.97
2022-12-31T06:43:02.078Z,17.90
2022-12-31T06:45:31.902Z,17.70
2022-12-31T06:48:09.091Z,19.23
2022-12-31T06:50:38.836Z,17.43
2022-12-31T06:53:08.546Z,18.50
2022-12-31T06:55:54.183Z,16.50
2022-12-31T06:58:31.904Z,17.37
2022-12-31T07:01:19.490Z,16.00
2022-12-31T07:04:00.996Z,16.87
2022-12-31T07:06:36.701Z,18.93
2022-12-31T07:09:13.527Z,17.37
2022-12-31T07:11:53.159Z,17.23
2022-12-31T07:14:31.709Z,17.93
2022-12-31T07:17:08.948Z,17.60
2022-12-31T07:19:57.709Z,17.37
2022-12-31T07:22:31.456Z,17.63
2022-12-31T07:25:07.148Z,18.07
2022-12-31T07:27:54.967Z,17.97
2022-12-31T07:30:28.987Z,18.37
2022-12-31T07:33:33.395Z,17.20
2022-12-31T07:36:23.262Z,17.57
2022-12-31T07:38:55.527Z,17.60
2022-12-31T07:41:38.459Z,18.50
2022-12-31T07:44:22.834Z,18.07
2022-12-31T07:46:59.205Z,19.20
2022-12-31T07:49:30.940Z,17.70
2022-12-31T07:52:04.392Z,19.40
2022-12-31T07:54:33.716Z,18.27
2022-12-31T07:57:14.624Z,19.63
2022-12-31T08:00:05.314Z,19.50
2022-12-31T08:03:07.005Z,18.13
2022-12-31T08:05:46.014Z,18.73
2022-12-31T08:08:34.980Z,18.90
2022-12-31T08:11:15.264Z,20.40
2022-12-31T08:13:46.520Z,20.17
2022-12-31T08:16:19.682Z,20.53
2022-12-31T08:18:59.654Z,18.27
2022-12-31T08:21:42.757Z,19.90
2022-12-31T08:24:19.748Z,20.20
2022-12-31T08:26:56.456Z,19.33
2022-12-31T08:29:41.078Z,19.33
2022-12-31T08:32:41.670Z,19.67
2022-12-31T08:35:23.222Z,20.23
2022-12-31T08:37:59.620Z,21.07
2022-12-31T08:40:35.496Z,20.13
2022-12-31T08:43:28.898Z,19.57
2022-12-31T08:46:04.564Z,19.70
2022-12-31T08:48:44.280Z,21.20
2022-12-31T08:51:16.613Z,20.87
2022-12-31T08:53:48.374Z,19.10
2022-12-31T08:56:26.387Z,20.50
2022-12-31T08:59:10.251Z,20.50
2022-12-31T09:01:50.364Z,19.70
2022-12-31T09:04:30.045Z,18.97
2022-12-31T09:07:12.100Z,20.80
2022-12-31T09:09:56.822Z,20.23
2022-12-31T09:12:32.188Z,18.90
2022-12-31T09:15:11.534Z,20.00
2022-12-31T09:17:50.459Z,20.40
2022-12-31T09:20:42.454Z,20.67
2022-12-31T09:23:19.547Z,19.57
2022-12-31T09:26:00.047Z,21.17
2022-12-31T09:28:38.886Z,20.40
2022-12-31T09:31:14.762Z,20.27
2022-12-31T09:33:52.916Z,21.80
2022-12-31T09:36:31.327Z,20.30
2022-12-31T09:39:12.364Z,21.57
2022-12-31T09:42:26.984Z,20.40
2022-12-31T09:45:23.804Z,21.27
2022-12-31T09:48:12.138Z,22.50
2022-12-31T09:51:04.215Z,21.37
2022-12-31T09:54:25.389Z,22.97
2022-12-31T09:57:14.098Z,20.47
2022-12-31T09:59:49.499Z,22.10
2022-12-31T10:02:31.200Z,21.60
2022-12-31T10:05:21.273Z,20.90
2022-12-31T10:07:57.556Z,22.57
2022-12-31T10:10:46.036Z,21.00
2022-12-31T10:13:47.130Z,21.40
2022-12-31T10:16:42.190Z,19.87
2022-12-31T10:19:35.116Z,20.70
2022-12-31T10:22:15.479Z,21.07
2022-12-31T10:25:01.891Z,20.43
2022-12-31T10:27:48.403Z,22.80
2022-12-31T10:30:26.967Z,20.20
2022-12-31T10:33:10.978Z,20.93
2022-12-31T10:35:54.243Z,20.63
2022-12-31T10:38:28.651Z,19.93
2022-12-31T10:41:44.408Z,20.47
2022-12-31T10:44:53.962Z,20.07
2022-12-31T10:48:12.235Z,20.00
2022-12-31T10:51:22.647Z,19.97
2022-12-31T10:54:30.844Z,20.10
2022-12-31T10:57:57.395Z,18.83
2022-12-31T11:00:31.483Z,18.57
2022-12-31T11:03:39.779Z,20.07
2022-12-31T11:07:01.362Z,19.83
2022-12-31T11:09:55.619Z,19.23
2022-12-31T11:13:07.439Z,19.80
2022-12-31T11:15:50.483Z,20.83
2022-12-31T11:18:27.194Z,20.63
2022-12-31T11:21:12.091Z,21.00
2022-12-31T11:23:46.105Z,20.57
2022-12-31T11:26:26.331Z,20.13
2022-12-31T11:29:11.314Z,21.67
2022-12-31T11:31:55.387Z,20.37
2022-12-31T11:35:05.715Z,18.77
2022-12-31T11:37:46.367Z,19.30
2022-12-31T11:40:48.458Z,20.43
2022-12-31T11:43:40.675Z,20.40
2022-12-31T11:46:53.673Z,21.50
2022-12-31T11:49:44.604Z,20.33
2022-12-31T11:52:41.304Z,20.30
2022-12-31T11:55:35.216Z,19.13
2022-12-31T11:58:18.025Z,20.33
2022-12-31T12:01:12.832Z,20.33
2022-12-31T12:03:47.779Z,20.27
2022-12-31T12:06:24.126Z,21.90
2022-12-31T12:08:59.442Z,20.93
2022-12-31T12:11:31.497Z,21.30
2022-12-31T12:14:00.547Z,19.80
2022-12-31T12:16:32.097Z,21.80
2022-12-31T12:19:20.158Z,21.23
2022-12-31T12:21:50.370Z,22.57
2022-12-31T12:24:22.552Z,21.20
2022-12-31T12:26:51.830Z,20.30
2022-12-31T12:29:25.186Z,20.40
2022-12-31T12:32:05.765Z,22.30
2022-12-31T12:34:36.497Z,20.70
2022-12-31T12:37:11.529Z,21.80
2022-12-31T12:39:41.100Z,20.30
2022-12-31T12:42:18.387Z,20.43
2022-12-31T12:44:47.198Z,22.13
2022-12-31T12:47:29.510Z,21.37
2022-12-31T12:50:00.622Z,22.40
2022-12-31T12:53:12.467Z,21.40
2022-12-31T12:55:56.191Z,22.83
2022-12-31T12:58:36.788Z,21.20
2022-12-31T13:01:11.955Z,20.30
2022-12-31T13:07:12.300Z,20.80
2022-12-31T13:09:54.172Z,20.50
2022-12-31T13:12:28.230Z,21.70
2022-12-31T13:15:06.127Z,21.77
2022-12-31T13:18:01.946Z,20.93
2022-12-31T13:20:45.383Z,22.53
2022-12-31T13:23:21.691Z,22.27
2022-12-31T13:26:08.798Z,21.20
2022-12-31T13:28:43.660Z,22.13
2022-12-31T13:31:26.370Z,22.33
2022-12-31T13:34:00.190Z,22.63
2022-12-31T13:36:36.060Z,21.67
2022-12-31T13:39:11.878Z,21.40
2022-12-31T13:41:45.022Z,22.67
2022-12-31T13:44:18.123Z,22.60
2022-12-31T13:46:51.930Z,21.90
2022-12-31T13:49:32.064Z,22.30
2022-12-31T13:52:15.156Z,22.33
2022-12-31T13:54:49.331Z,23.37
2022-12-31T13:57:26.327Z,23.67
2022-12-31T13:59:59.138Z,22.03
2022-12-31T14:02:36.683Z,23.77
2022-12-31T14:05:17.508Z,24.17
2022-12-31T14:08:02.424Z,24.67
2022-12-31T14:10:45.357Z,22.83
2022-12-31T14:13:41.993Z,26.37
2022-12-31T14:16:22.388Z,25.63
2022-12-31T14:19:03.620Z,24.00
2022-12-31T14:21:40.358Z,23.33
2022-12-31T14:24:27.284Z,23.80
2022-12-31T14:27:05.429Z,24.83
2022-12-31T14:29:39.759Z,25.00
2022-12-31T14:32:35.431Z,23.13
2022-12-31T14:35:30.166Z,23.67
2022-12-31T14:38:04.606Z,22.73
2022-12-31T14:40:50.217Z,24.60
2022-12-31T14:43:27.289Z,26.27
2022-12-31T14:46:11.295Z,27.97
2022-12-31T14:48:52.683Z,30.50
2022-12-31T14:51:23.464Z,27.40
2022-12-31T14:53:57.115Z,24.30
2022-12-31T14:56:47.668Z,26.47
2022-12-31T14:59:40.426Z,26.20
2022-12-31T15:02:34.700Z,26.93
2022-12-31T15:05:32.062Z,26.73
2022-12-31T15:08:23.442Z,33.60
2022-12-31T15:11:14.689Z,35.90
2022-12-31T15:14:37.577Z,35.03
2022-12-31T15:17:21.328Z,33.93
2022-12-31T15:20:39.280Z,34.67
2022-12-31T15:23:14.962Z,34.50
2022-12-31T15:25:51.379Z,31.13
2022-12-31T15:28:34.442Z,30.00
2022-12-31T15:31:25.523Z,33.77
2022-12-31T15:34:03.961Z,30.17
2022-12-31T15:36:38.657Z,31.10
2022-12-31T15:39:40.922Z,33.77
2022-12-31T15:42:50.011Z,35.47
2022-12-31T15:45:32.728Z,30.00
2022-12-31T15:48:04.776Z,28.67
2022-12-31T15:50:39.832Z,33.53
2022-12-31T15:53:09.604Z,29.67
2022-12-31T15:55:46.642Z,31.77
2022-12-31T15:58:22.038Z,30.10
2022-12-31T16:01:01.402Z,31.00
2022-12-31T16:03:37.139Z,29.80
2022-12-31T16:06:13.019Z,28.33
2022-12-31T16:08:46.073Z,26.87
2022-12-31T16:11:24.278Z,26.10
2022-12-31T16:14:00.534Z,27.60
2022-12-31T16:16:31.523Z,26.17
2022-12-31T16:19:33.901Z,24.87
2022-12-31T16:22:09.003Z,24.47
2022-12-31T16:24:48.885Z,24.20
2022-12-31T16:27:38.629Z,23.30
2022-12-31T16:30:19.855Z,25.83
2022-12-31T16:32:51.980Z,25.13
2022-12-31T16:35:34.776Z,26.07
2022-12-31T16:38:12.295Z,24.73
2022-12-31T16:40:45.605Z,25.90
2022-12-31T16:43:27.663Z,24.73
2022-12-31T16:46:08.498Z,23.73
2022-12-31T16:48:37.703Z,24.27
2022-12-31T16:51:20.101Z,25.30
2022-12-31T16:53:49.477Z,24.87
2022-12-31T16:56:33.462Z,24.00
2022-12-31T16:59:07.444Z,25.23
2022-12-31T17:01:38.680Z,27.03
2022-12-31T17:04:11.041Z,26.50
2022-12-31T17:06:46.713Z,27.07
2022-12-31T17:09:24.517Z,27.97
2022-12-31T17:11:57.363Z,25.50
2022-12-31T17:14:38.172Z,27.00
2022-12-31T17:17:12.129Z,25.90
2022-12-31T17:19:42.962Z,25.57
2022-12-31T17:22:36.489Z,23.70
2022-12-31T17:25:10.988Z,25.87
2022-12-31T17:27:49.031Z,26.17
2022-12-31T17:30:26.000Z,25.47
2022-12-31T17:33:08.323Z,26.23
2022-12-31T17:35:45.789Z,26.20
2022-12-31T17:38:44.237Z,25.87
2022-12-31T17:41:25.652Z,23.73
2022-12-31T17:44:05.806Z,24.47
2022-12-31T17:46:42.489Z,27.53
2022-12-31T17:49:22.180Z,28.73
2022-12-31T17:51:52.840Z,28.03
2022-12-31T17:54:33.181Z,28.63
2022-12-31T17:57:03.824Z,26.73
2022-12-31T17:59:41.776Z,27.37
2022-12-31T18:02:25.429Z,27.93
2022-12-31T18:04:55.594Z,27.20
2022-12-31T18:07:34.116Z,30.17
2022-12-31T18:10:17.639Z,29.63
2022-12-31T18:12:48.400Z,33.03
2022-12-31T18:15:21.322Z,36.30
2022-12-31T18:17:53.065Z,37.43
2022-12-31T18:20:26.717Z,37.83
2022-12-31T18:22:58.606Z,37.97
2022-12-31T18:25:30.839Z,36.20
2022-12-31T18:27:59.685Z,36.77
2022-12-31T18:30:31.287Z,37.33
2022-12-31T18:33:08.561Z,35.93
2022-12-31T18:36:07.643Z,33.70
2022-12-31T18:38:27.866Z,32.40
2022-12-31T18:41:09.036Z,31.83
2022-12-31T18:43:39.760Z,32.07
2022-12-31T18:46:12.458Z,32.43
2022-12-31T18:48:43.766Z,32.80
2022-12-31T18:51:31.455Z,32.33
2022-12-31T18:54:10.077Z,32.10
2022-12-31T18:56:49.248Z,32.47
2022-12-31T18:59:23.138Z,33.77
2022-12-31T19:01:51.692Z,32.23
2022-12-31T19:04:31.678Z,34.47
2022-12-31T19:07:06.056Z,35.27
2022-12-31T19:09:46.018Z,35.70
2022-12-31T19:12:20.987Z,32.20
2022-12-31T19:14:51.753Z,32.67
2022-12-31T19:17:24.029Z,31.50
2022-12-31T19:20:00.498Z,32.23
2022-12-31T19:22:32.670Z,32.97
2022-12-31T19:25:04.784Z,33.10
2022-12-31T19:27:40.260Z,36.07
2022-12-31T19:30:15.107Z,33.47
2022-12-31T19:32:45.663Z,33.40
2022-12-31T19:35:21.880Z,32.87
2022-12-31T19:37:54.729Z,39.90
2022-12-31T19:40:28.234Z,45.07
2022-12-31T19:42:59.740Z,48.77
2022-12-31T19:45:32.099Z,50.87
2022-12-31T19:48:00.857Z,49.30
2022-12-31T19:50:33.048Z,47.50
2022-12-31T19:53:01.994Z,48.30
2022-12-31T19:55:33.796Z,47.30
2022-12-31T19:58:13.659Z,47.87
2022-12-31T20:00:56.768Z,48.90
2022-12-31T20:03:28.074Z,48.17
2022-12-31T20:06:09.763Z,46.90
2022-12-31T20:08:43.487Z,46.30
2022-12-31T20:11:16.699Z,47.07
2022-12-31T20:13:52.805Z,47.50
2022-12-31T20:16:24.549Z,46.90
2022-12-31T20:18:53.784Z,45.07
2022-12-31T20:21:32.384Z,42.47
2022-12-31T20:24:04.489Z,42.10
2022-12-31T20:26:38.708Z,43.60
2022-12-31T20:29:15.690Z,41.33
2022-12-31T20:31:50.025Z,41.27
2022-12-31T20:34:23.941Z,42.80
2022-12-31T20:36:54.902Z,42.47
2022-12-31T20:39:29.334Z,43.90
2022-12-31T20:42:03.223Z,45.70
2022-12-31T20:44:35.478Z,43.40
2022-12-31T20:47:07.511Z,43.43
2022-12-31T20:50:09.795Z,47.03
2022-12-31T20:52:27.986Z,48.47
2022-12-31T20:55:03.122Z,47.57
2022-12-31T20:57:34.284Z,48.67
2022-12-31T21:00:14.709Z,47.50
2022-12-31T21:02:53.131Z,46.37
2022-12-31T21:05:29.455Z,44.10
2022-12-31T21:07:59.552Z,42.40
2022-12-31T21:10:28.218Z,41.00
2022-12-31T21:12:59.083Z,42.97
2022-12-31T21:15:35.938Z,41.53
2022-12-31T21:18:13.048Z,39.77
2022-12-31T21:20:54.047Z,40.03
2022-12-31T21:23:22.830Z,38.57
2022-12-31T21:25:54.983Z,38.50
2022-12-31T21:28:26.463Z,36.00
2022-12-31T21:31:02.581Z,36.80
2022-12-31T21:33:31.134Z,36.30
2022-12-31T21:36:14.502Z,36.17
2022-12-31T21:38:45.343Z,35.23
2022-12-31T21:41:44.165Z,36.17
2022-12-31T21:44:15.463Z,36.27
2022-12-31T21:47:24.811Z,48.60
2022-12-31T21:49:39.787Z,51.03
2022-12-31T21:52:27.726Z,48.33
2022-12-31T21:55:18.411Z,48.70
2022-12-31T22:01:04.448Z,50.03
2022-12-31T22:03:36.937Z,49.13
2022-12-31T22:06:21.515Z,50.63
2022-12-31T22:09:00.978Z,51.57
2022-12-31T22:11:30.295Z,51.40
2022-12-31T22:14:04.326Z,52.23
2022-12-31T22:16:36.046Z,50.93
2022-12-31T22:19:14.755Z,52.77
2022-12-31T22:21:53.161Z,53.90
2022-12-31T22:24:21.853Z,58.27
2022-12-31T22:26:54.151Z,60.80
2022-12-31T22:29:28.389Z,59.13
2022-12-31T22:32:01.154Z,59.33
2022-12-31T22:34:42.884Z,59.50
2022-12-31T22:37:55.120Z,59.50
2022-12-31T22:40:12.085Z,59.67
2022-12-31T22:42:48.907Z,61.07
2022-12-31T22:45:23.530Z,63.77
2022-12-31T22:47:52.086Z,65.07
2022-12-31T22:50:27.116Z,63.40
2022-12-31T22:52:55.867Z,63.60
2022-12-31T22:55:28.727Z,65.77
2022-12-31T22:58:01.025Z,65.77
2022-12-31T23:00:42.432Z,65.30
2022-12-31T23:03:22.621Z,65.57
2022-12-31T23:05:54.115Z,68.20
2022-12-31T23:08:24.172Z,77.80
2022-12-31T23:11:01.904Z,79.43
2022-12-31T23:13:55.718Z,103.33
2022-12-31T23:16:44.279Z,118.60
2022-12-31T23:19:32.013Z,124.43
2022-12-31T23:22:24.840Z,105.73
2022-12-31T23:24:55.728Z,102.23
2022-12-31T23:27:27.258Z,96.57
2022-12-31T23:29:58.671Z,105.70
2022-12-31T23:32:31.734Z,102.20
2022-12-31T23:35:09.415Z,111.30
2022-12-31T23:37:41.928Z,120.50
2022-12-31T23:40:22.230Z,120.43
2022-12-31T23:42:51.859Z,121.73
2022-12-31T23:45:31.139Z,124.33
2022-12-31T23:48:10.245Z,123.90
2022-12-31T23:50:41.754Z,120.80
2022-12-31T23:53:23.673Z,124.03
2022-12-31T23:56:11.348Z,122.60
2022-12-31T23:58:42.031Z,134.90
